sensor_id;sensor_type;location;lat;lon;timestamp;P1;durP1;ratioP1;P2;durP2;ratioP2
77158;SDS011;66129;45.890;13.714;2023-02-10T00:00:00;28.30;;;12.90;;
77158;SDS011;66129;45.890;13.714;2023-02-10T00:02:25;28.85;;;14.40;;
77158;SDS011;66129;45.890;13.714;2023-02-10T00:04:51;25.27;;;13.55;;
77158;SDS011;66129;45.890;13.714;2023-02-10T00:07:19;25.52;;;11.07;;
77158;SDS011;66129;45.890;13.714;2023-02-10T00:09:44;24.85;;;11.20;;
77158;SDS011;66129;45.890;13.714;2023-02-10T00:12:10;25.20;;;11.52;;
77158;SDS011;66129;45.890;13.714;2023-02-10T00:14:37;24.73;;;11.10;;
77158;SDS011;66129;45.890;13.714;2023-02-10T00:17:03;34.30;;;15.20;;
77158;SDS011;66129;45.890;13.714;2023-02-10T00:19:29;88.00;;;28.35;;
77158;SDS011;66129;45.890;13.714;2023-02-10T00:21:56;38.20;;;17.05;;
77158;SDS011;66129;45.890;13.714;2023-02-10T00:24:22;54.45;;;20.77;;
77158;SDS011;66129;45.890;13.714;2023-02-10T00:26:48;47.05;;;18.65;;
77158;SDS011;66129;45.890;13.714;2023-02-10T00:29:14;32.50;;;14.80;;
77158;SDS011;66129;45.890;13.714;2023-02-10T00:31:40;29.38;;;13.50;;
77158;SDS011;66129;45.890;13.714;2023-02-10T00:34:06;21.75;;;11.60;;
77158;SDS011;66129;45.890;13.714;2023-02-10T00:36:34;24.13;;;11.15;;
77158;SDS011;66129;45.890;13.714;2023-02-10T00:39:00;28.45;;;11.82;;
77158;SDS011;66129;45.890;13.714;2023-02-10T00:41:25;24.13;;;10.90;;
77158;SDS011;66129;45.890;13.714;2023-02-10T00:43:51;28.45;;;12.48;;
77158;SDS011;66129;45.890;13.714;2023-02-10T00:46:17;21.10;;;10.80;;
77158;SDS011;66129;45.890;13.714;2023-02-10T00:48:44;25.90;;;11.98;;
77158;SDS011;66129;45.890;13.714;2023-02-10T00:51:10;26.60;;;11.95;;
77158;SDS011;66129;45.890;13.714;2023-02-10T00:53:36;26.55;;;12.43;;
77158;SDS011;66129;45.890;13.714;2023-02-10T00:56:01;23.75;;;12.02;;
77158;SDS011;66129;45.890;13.714;2023-02-10T00:58:27;20.85;;;10.60;;
77158;SDS011;66129;45.890;13.714;2023-02-10T01:00:54;24.98;;;11.32;;
77158;SDS011;66129;45.890;13.714;2023-02-10T01:03:19;28.67;;;11.18;;
77158;SDS011;66129;45.890;13.714;2023-02-10T01:05:45;22.83;;;10.95;;
77158;SDS011;66129;45.890;13.714;2023-02-10T01:08:11;22.30;;;10.55;;
77158;SDS011;66129;45.890;13.714;2023-02-10T01:10:38;22.42;;;11.32;;
77158;SDS011;66129;45.890;13.714;2023-02-10T01:13:04;25.50;;;11.77;;
77158;SDS011;66129;45.890;13.714;2023-02-10T01:15:31;23.77;;;10.63;;
77158;SDS011;66129;45.890;13.714;2023-02-10T01:17:57;23.92;;;11.77;;
77158;SDS011;66129;45.890;13.714;2023-02-10T01:20:23;21.50;;;10.07;;
77158;SDS011;66129;45.890;13.714;2023-02-10T01:22:49;23.42;;;11.43;;
77158;SDS011;66129;45.890;13.714;2023-02-10T01:25:14;40.10;;;16.20;;
77158;SDS011;66129;45.890;13.714;2023-02-10T01:27:40;42.95;;;20.80;;
77158;SDS011;66129;45.890;13.714;2023-02-10T01:30:05;37.20;;;15.23;;
77158;SDS011;66129;45.890;13.714;2023-02-10T01:32:31;27.40;;;12.85;;
77158;SDS011;66129;45.890;13.714;2023-02-10T01:34:56;25.50;;;12.05;;
77158;SDS011;66129;45.890;13.714;2023-02-10T01:37:22;29.35;;;12.93;;
77158;SDS011;66129;45.890;13.714;2023-02-10T01:39:47;34.17;;;16.40;;
77158;SDS011;66129;45.890;13.714;2023-02-10T01:42:13;38.20;;;16.85;;
77158;SDS011;66129;45.890;13.714;2023-02-10T01:47:05;29.35;;;13.15;;
77158;SDS011;66129;45.890;13.714;2023-02-10T01:49:33;22.35;;;11.05;;
77158;SDS011;66129;45.890;13.714;2023-02-10T01:52:11;27.65;;;11.93;;
77158;SDS011;66129;45.890;13.714;2023-02-10T01:54:42;40.38;;;15.85;;
77158;SDS011;66129;45.890;13.714;2023-02-10T01:57:11;59.35;;;23.17;;
77158;SDS011;66129;45.890;13.714;2023-02-10T01:59:37;39.35;;;15.95;;
77158;SDS011;66129;45.890;13.714;2023-02-10T02:02:06;27.55;;;11.70;;
77158;SDS011;66129;45.890;13.714;2023-02-10T02:04:58;22.48;;;11.80;;
77158;SDS011;66129;45.890;13.714;2023-02-10T02:07:25;29.00;;;12.30;;
77158;SDS011;66129;45.890;13.714;2023-02-10T02:09:54;28.00;;;12.90;;
77158;SDS011;66129;45.890;13.714;2023-02-10T02:15:36;30.05;;;12.07;;
77158;SDS011;66129;45.890;13.714;2023-02-10T02:18:20;25.80;;;12.60;;
77158;SDS011;66129;45.890;13.714;2023-02-10T02:30:07;37.13;;;14.30;;
77158;SDS011;66129;45.890;13.714;2023-02-10T02:32:35;35.20;;;13.30;;
77158;SDS011;66129;45.890;13.714;2023-02-10T02:35:05;23.80;;;11.27;;
77158;SDS011;66129;45.890;13.714;2023-02-10T02:37:42;21.27;;;11.50;;
77158;SDS011;66129;45.890;13.714;2023-02-10T02:40:11;29.15;;;12.38;;
77158;SDS011;66129;45.890;13.714;2023-02-10T02:42:40;26.42;;;13.60;;
77158;SDS011;66129;45.890;13.714;2023-02-10T02:45:06;28.08;;;13.02;;
77158;SDS011;66129;45.890;13.714;2023-02-10T02:47:44;22.10;;;10.88;;
77158;SDS011;66129;45.890;13.714;2023-02-10T02:50:18;30.42;;;13.60;;
77158;SDS011;66129;45.890;13.714;2023-02-10T02:55:32;29.23;;;13.95;;
77158;SDS011;66129;45.890;13.714;2023-02-10T03:01:07;31.15;;;12.63;;
77158;SDS011;66129;45.890;13.714;2023-02-10T03:03:46;23.80;;;12.15;;
77158;SDS011;66129;45.890;13.714;2023-02-10T03:06:12;24.40;;;10.43;;
77158;SDS011;66129;45.890;13.714;2023-02-10T03:08:38;25.60;;;10.55;;
77158;SDS011;66129;45.890;13.714;2023-02-10T03:11:06;23.23;;;12.30;;
77158;SDS011;66129;45.890;13.714;2023-02-10T03:13:31;20.15;;;11.13;;
77158;SDS011;66129;45.890;13.714;2023-02-10T03:15:58;29.63;;;12.52;;
77158;SDS011;66129;45.890;13.714;2023-02-10T03:18:24;26.25;;;12.10;;
77158;SDS011;66129;45.890;13.714;2023-02-10T03:20:50;22.70;;;11.55;;
77158;SDS011;66129;45.890;13.714;2023-02-10T03:23:16;22.38;;;11.05;;
77158;SDS011;66129;45.890;13.714;2023-02-10T03:25:43;25.60;;;10.60;;
77158;SDS011;66129;45.890;13.714;2023-02-10T03:28:09;22.88;;;11.20;;
77158;SDS011;66129;45.890;13.714;2023-02-10T03:30:36;23.58;;;10.88;;
77158;SDS011;66129;45.890;13.714;2023-02-10T03:33:01;26.38;;;10.82;;
77158;SDS011;66129;45.890;13.714;2023-02-10T03:35:27;19.63;;;10.82;;
77158;SDS011;66129;45.890;13.714;2023-02-10T03:37:52;22.45;;;11.15;;
77158;SDS011;66129;45.890;13.714;2023-02-10T03:40:18;20.25;;;10.73;;
77158;SDS011;66129;45.890;13.714;2023-02-10T03:42:44;25.52;;;11.43;;
77158;SDS011;66129;45.890;13.714;2023-02-10T03:45:09;21.75;;;9.73;;
77158;SDS011;66129;45.890;13.714;2023-02-10T03:47:34;21.45;;;11.38;;
77158;SDS011;66129;45.890;13.714;2023-02-10T03:50:00;19.05;;;11.35;;
77158;SDS011;66129;45.890;13.714;2023-02-10T03:52:25;33.00;;;14.05;;
77158;SDS011;66129;45.890;13.714;2023-02-10T03:54:51;25.08;;;11.65;;
77158;SDS011;66129;45.890;13.714;2023-02-10T03:57:16;31.60;;;14.15;;
77158;SDS011;66129;45.890;13.714;2023-02-10T03:59:43;26.15;;;11.50;;
77158;SDS011;66129;45.890;13.714;2023-02-10T04:02:09;24.55;;;10.70;;
77158;SDS011;66129;45.890;13.714;2023-02-10T04:04:35;25.42;;;13.30;;
77158;SDS011;66129;45.890;13.714;2023-02-10T04:07:01;27.48;;;12.80;;
77158;SDS011;66129;45.890;13.714;2023-02-10T04:09:28;50.17;;;21.80;;
77158;SDS011;66129;45.890;13.714;2023-02-10T04:11:54;52.65;;;21.13;;
77158;SDS011;66129;45.890;13.714;2023-02-10T04:14:20;40.95;;;16.00;;
77158;SDS011;66129;45.890;13.714;2023-02-10T04:16:45;38.53;;;15.60;;
77158;SDS011;66129;45.890;13.714;2023-02-10T04:19:11;22.00;;;11.30;;
77158;SDS011;66129;45.890;13.714;2023-02-10T04:21:36;27.27;;;11.93;;
77158;SDS011;66129;45.890;13.714;2023-02-10T04:24:02;19.05;;;9.70;;
77158;SDS011;66129;45.890;13.714;2023-02-10T04:26:27;26.85;;;13.80;;
77158;SDS011;66129;45.890;13.714;2023-02-10T04:28:53;25.65;;;11.10;;
77158;SDS011;66129;45.890;13.714;2023-02-10T04:31:18;23.75;;;10.32;;
77158;SDS011;66129;45.890;13.714;2023-02-10T04:33:44;25.15;;;11.00;;
77158;SDS011;66129;45.890;13.714;2023-02-10T04:36:09;14.02;;;8.32;;
77158;SDS011;66129;45.890;13.714;2023-02-10T04:38:35;20.17;;;9.60;;
77158;SDS011;66129;45.890;13.714;2023-02-10T04:41:00;20.00;;;11.13;;
77158;SDS011;66129;45.890;13.714;2023-02-10T04:43:28;19.23;;;9.48;;
77158;SDS011;66129;45.890;13.714;2023-02-10T04:45:53;23.42;;;10.43;;
77158;SDS011;66129;45.890;13.714;2023-02-10T04:48:19;21.52;;;11.02;;
77158;SDS011;66129;45.890;13.714;2023-02-10T04:50:46;24.40;;;11.73;;
77158;SDS011;66129;45.890;13.714;2023-02-10T04:53:12;26.60;;;14.65;;
77158;SDS011;66129;45.890;13.714;2023-02-10T04:55:37;22.17;;;11.25;;
77158;SDS011;66129;45.890;13.714;2023-02-10T04:58:03;26.35;;;12.38;;
77158;SDS011;66129;45.890;13.714;2023-02-10T05:00:28;27.80;;;10.93;;
77158;SDS011;66129;45.890;13.714;2023-02-10T05:02:54;25.42;;;13.10;;
77158;SDS011;66129;45.890;13.714;2023-02-10T05:05:19;25.80;;;11.98;;
77158;SDS011;66129;45.890;13.714;2023-02-10T05:07:45;32.72;;;11.52;;
77158;SDS011;66129;45.890;13.714;2023-02-10T05:10:11;25.20;;;13.23;;
77158;SDS011;66129;45.890;13.714;2023-02-10T05:12:36;21.58;;;9.98;;
77158;SDS011;66129;45.890;13.714;2023-02-10T05:15:02;26.85;;;11.00;;
77158;SDS011;66129;45.890;13.714;2023-02-10T05:17:28;20.40;;;10.77;;
77158;SDS011;66129;45.890;13.714;2023-02-10T05:19:54;19.95;;;10.25;;
77158;SDS011;66129;45.890;13.714;2023-02-10T05:22:19;20.80;;;10.55;;
77158;SDS011;66129;45.890;13.714;2023-02-10T05:24:47;18.75;;;10.07;;
77158;SDS011;66129;45.890;13.714;2023-02-10T05:27:14;25.38;;;11.52;;
77158;SDS011;66129;45.890;13.714;2023-02-10T05:29:40;23.45;;;10.95;;
77158;SDS011;66129;45.890;13.714;2023-02-10T05:32:05;25.75;;;10.38;;
77158;SDS011;66129;45.890;13.714;2023-02-10T05:34:30;27.25;;;11.13;;
77158;SDS011;66129;45.890;13.714;2023-02-10T05:36:56;22.08;;;9.05;;
77158;SDS011;66129;45.890;13.714;2023-02-10T05:39:21;16.92;;;8.70;;
77158;SDS011;66129;45.890;13.714;2023-02-10T05:41:53;21.75;;;9.38;;
77158;SDS011;66129;45.890;13.714;2023-02-10T05:44:21;20.05;;;10.75;;
77158;SDS011;66129;45.890;13.714;2023-02-10T05:46:47;21.83;;;9.27;;
77158;SDS011;66129;45.890;13.714;2023-02-10T05:49:13;18.83;;;9.65;;
77158;SDS011;66129;45.890;13.714;2023-02-10T05:51:39;26.13;;;12.85;;
77158;SDS011;66129;45.890;13.714;2023-02-10T05:54:05;31.55;;;16.13;;
77158;SDS011;66129;45.890;13.714;2023-02-10T05:56:31;20.33;;;10.32;;
77158;SDS011;66129;45.890;13.714;2023-02-10T05:58:56;22.35;;;10.20;;
77158;SDS011;66129;45.890;13.714;2023-02-10T06:01:23;24.15;;;11.00;;
77158;SDS011;66129;45.890;13.714;2023-02-10T06:03:49;24.40;;;11.57;;
77158;SDS011;66129;45.890;13.714;2023-02-10T06:06:15;29.65;;;14.73;;
77158;SDS011;66129;45.890;13.714;2023-02-10T06:08:41;24.55;;;10.88;;
77158;SDS011;66129;45.890;13.714;2023-02-10T06:11:06;21.30;;;9.93;;
77158;SDS011;66129;45.890;13.714;2023-02-10T06:13:32;37.90;;;16.55;;
77158;SDS011;66129;45.890;13.714;2023-02-10T06:15:58;36.83;;;14.23;;
77158;SDS011;66129;45.890;13.714;2023-02-10T06:18:23;31.33;;;13.30;;
77158;SDS011;66129;45.890;13.714;2023-02-10T06:20:49;22.60;;;10.50;;
77158;SDS011;66129;45.890;13.714;2023-02-10T06:23:16;20.73;;;9.93;;
77158;SDS011;66129;45.890;13.714;2023-02-10T06:25:42;30.77;;;14.70;;
77158;SDS011;66129;45.890;13.714;2023-02-10T06:28:08;36.92;;;17.85;;
77158;SDS011;66129;45.890;13.714;2023-02-10T06:30:34;40.45;;;18.88;;
77158;SDS011;66129;45.890;13.714;2023-02-10T06:32:59;31.85;;;15.80;;
77158;SDS011;66129;45.890;13.714;2023-02-10T06:35:25;29.65;;;13.70;;
77158;SDS011;66129;45.890;13.714;2023-02-10T06:37:51;30.55;;;13.07;;
77158;SDS011;66129;45.890;13.714;2023-02-10T06:40:17;27.10;;;12.82;;
77158;SDS011;66129;45.890;13.714;2023-02-10T06:42:42;33.42;;;12.85;;
77158;SDS011;66129;45.890;13.714;2023-02-10T06:45:08;25.45;;;12.93;;
77158;SDS011;66129;45.890;13.714;2023-02-10T06:47:34;45.65;;;19.75;;
77158;SDS011;66129;45.890;13.714;2023-02-10T06:50:00;25.25;;;14.18;;
77158;SDS011;66129;45.890;13.714;2023-02-10T06:52:26;53.42;;;22.33;;
77158;SDS011;66129;45.890;13.714;2023-02-10T06:54:52;33.17;;;15.60;;
77158;SDS011;66129;45.890;13.714;2023-02-10T06:57:18;31.70;;;16.65;;
77158;SDS011;66129;45.890;13.714;2023-02-10T06:59:43;29.10;;;12.52;;
77158;SDS011;66129;45.890;13.714;2023-02-10T07:02:12;23.33;;;11.73;;
77158;SDS011;66129;45.890;13.714;2023-02-10T07:04:38;29.38;;;14.45;;
77158;SDS011;66129;45.890;13.714;2023-02-10T07:07:04;45.08;;;19.10;;
77158;SDS011;66129;45.890;13.714;2023-02-10T07:09:30;60.65;;;23.60;;
77158;SDS011;66129;45.890;13.714;2023-02-10T07:11:56;51.58;;;22.45;;
77158;SDS011;66129;45.890;13.714;2023-02-10T07:14:22;181.60;;;59.00;;
77158;SDS011;66129;45.890;13.714;2023-02-10T07:16:48;109.97;;;38.22;;
77158;SDS011;66129;45.890;13.714;2023-02-10T07:19:14;50.80;;;23.88;;
77158;SDS011;66129;45.890;13.714;2023-02-10T07:21:40;78.07;;;25.38;;
77158;SDS011;66129;45.890;13.714;2023-02-10T07:24:05;57.95;;;25.20;;
77158;SDS011;66129;45.890;13.714;2023-02-10T07:26:31;53.17;;;20.75;;
77158;SDS011;66129;45.890;13.714;2023-02-10T07:28:57;104.55;;;36.53;;
77158;SDS011;66129;45.890;13.714;2023-02-10T07:31:22;57.95;;;22.67;;
77158;SDS011;66129;45.890;13.714;2023-02-10T07:33:48;43.97;;;19.00;;
77158;SDS011;66129;45.890;13.714;2023-02-10T07:36:14;60.83;;;23.42;;
77158;SDS011;66129;45.890;13.714;2023-02-10T07:38:40;40.17;;;17.90;;
77158;SDS011;66129;45.890;13.714;2023-02-10T07:41:06;107.65;;;35.92;;
77158;SDS011;66129;45.890;13.714;2023-02-10T07:43:32;59.17;;;22.65;;
77158;SDS011;66129;45.890;13.714;2023-02-10T07:46:00;43.13;;;22.38;;
77158;SDS011;66129;45.890;13.714;2023-02-10T07:48:29;46.72;;;20.10;;
77158;SDS011;66129;45.890;13.714;2023-02-10T07:50:54;63.47;;;20.67;;
77158;SDS011;66129;45.890;13.714;2023-02-10T07:53:20;37.17;;;21.92;;
77158;SDS011;66129;45.890;13.714;2023-02-10T07:55:46;31.48;;;15.95;;
77158;SDS011;66129;45.890;13.714;2023-02-10T07:58:12;28.95;;;15.52;;
77158;SDS011;66129;45.890;13.714;2023-02-10T08:00:38;27.40;;;14.82;;
77158;SDS011;66129;45.890;13.714;2023-02-10T08:03:04;30.73;;;16.23;;
77158;SDS011;66129;45.890;13.714;2023-02-10T08:05:30;36.20;;;16.60;;
77158;SDS011;66129;45.890;13.714;2023-02-10T08:07:56;35.55;;;18.10;;
77158;SDS011;66129;45.890;13.714;2023-02-10T08:10:21;29.85;;;17.20;;
77158;SDS011;66129;45.890;13.714;2023-02-10T08:12:47;35.38;;;18.10;;
77158;SDS011;66129;45.890;13.714;2023-02-10T08:15:21;32.17;;;17.70;;
77158;SDS011;66129;45.890;13.714;2023-02-10T08:17:50;32.80;;;17.55;;
77158;SDS011;66129;45.890;13.714;2023-02-10T08:20:16;30.95;;;18.10;;
77158;SDS011;66129;45.890;13.714;2023-02-10T08:22:41;36.72;;;18.15;;
77158;SDS011;66129;45.890;13.714;2023-02-10T08:25:07;35.92;;;18.55;;
77158;SDS011;66129;45.890;13.714;2023-02-10T08:27:32;35.40;;;18.73;;
77158;SDS011;66129;45.890;13.714;2023-02-10T08:29:58;34.28;;;18.73;;
77158;SDS011;66129;45.890;13.714;2023-02-10T08:32:23;35.90;;;18.73;;
77158;SDS011;66129;45.890;13.714;2023-02-10T08:34:49;31.98;;;17.15;;
77158;SDS011;66129;45.890;13.714;2023-02-10T08:37:18;35.20;;;19.75;;
77158;SDS011;66129;45.890;13.714;2023-02-10T08:39:44;50.85;;;25.42;;
77158;SDS011;66129;45.890;13.714;2023-02-10T08:42:10;30.38;;;17.52;;
77158;SDS011;66129;45.890;13.714;2023-02-10T08:44:35;27.92;;;15.80;;
77158;SDS011;66129;45.890;13.714;2023-02-10T08:47:01;43.03;;;19.48;;
77158;SDS011;66129;45.890;13.714;2023-02-10T08:49:27;31.80;;;16.30;;
77158;SDS011;66129;45.890;13.714;2023-02-10T08:51:53;28.05;;;15.55;;
77158;SDS011;66129;45.890;13.714;2023-02-10T08:54:19;33.72;;;15.70;;
77158;SDS011;66129;45.890;13.714;2023-02-10T08:56:46;28.30;;;14.43;;
77158;SDS011;66129;45.890;13.714;2023-02-10T08:59:11;24.20;;;12.80;;
77158;SDS011;66129;45.890;13.714;2023-02-10T09:01:37;20.92;;;11.30;;
77158;SDS011;66129;45.890;13.714;2023-02-10T09:04:03;21.75;;;10.50;;
77158;SDS011;66129;45.890;13.714;2023-02-10T09:06:30;16.33;;;9.68;;
77158;SDS011;66129;45.890;13.714;2023-02-10T09:09:04;15.05;;;8.20;;
77158;SDS011;66129;45.890;13.714;2023-02-10T09:11:30;17.77;;;9.00;;
77158;SDS011;66129;45.890;13.714;2023-02-10T09:13:56;16.17;;;9.55;;
77158;SDS011;66129;45.890;13.714;2023-02-10T09:16:22;19.20;;;10.05;;
77158;SDS011;66129;45.890;13.714;2023-02-10T09:18:48;16.45;;;10.15;;
77158;SDS011;66129;45.890;13.714;2023-02-10T09:21:14;15.95;;;8.43;;
77158;SDS011;66129;45.890;13.714;2023-02-10T09:23:40;18.25;;;9.63;;
77158;SDS011;66129;45.890;13.714;2023-02-10T09:26:05;15.18;;;9.57;;
77158;SDS011;66129;45.890;13.714;2023-02-10T09:28:31;14.50;;;8.82;;
77158;SDS011;66129;45.890;13.714;2023-02-10T09:30:57;16.55;;;10.43;;
77158;SDS011;66129;45.890;13.714;2023-02-10T09:33:23;19.60;;;11.70;;
77158;SDS011;66129;45.890;13.714;2023-02-10T09:35:48;17.75;;;9.50;;
77158;SDS011;66129;45.890;13.714;2023-02-10T09:38:16;12.73;;;8.18;;
77158;SDS011;66129;45.890;13.714;2023-02-10T09:51:51;14.57;;;8.35;;
77158;SDS011;66129;45.890;13.714;2023-02-10T09:54:39;14.55;;;8.90;;
77158;SDS011;66129;45.890;13.714;2023-02-10T09:57:08;15.00;;;8.27;;
77158;SDS011;66129;45.890;13.714;2023-02-10T09:59:41;19.10;;;11.23;;
77158;SDS011;66129;45.890;13.714;2023-02-10T10:02:52;16.10;;;9.95;;
77158;SDS011;66129;45.890;13.714;2023-02-10T10:05:00;71.40;;;39.58;;
77158;SDS011;66129;45.890;13.714;2023-02-10T10:07:37;15.57;;;8.65;;
77158;SDS011;66129;45.890;13.714;2023-02-10T10:10:17;13.00;;;7.65;;
77158;SDS011;66129;45.890;13.714;2023-02-10T10:12:49;70.97;;;39.20;;
77158;SDS011;66129;45.890;13.714;2023-02-10T10:15:15;62.83;;;33.30;;
77158;SDS011;66129;45.890;13.714;2023-02-10T10:17:52;34.20;;;17.38;;
77158;SDS011;66129;45.890;13.714;2023-02-10T10:20:51;15.00;;;7.78;;
77158;SDS011;66129;45.890;13.714;2023-02-10T10:32:48;12.02;;;7.28;;
77158;SDS011;66129;45.890;13.714;2023-02-10T10:37:57;44.85;;;22.08;;
77158;SDS011;66129;45.890;13.714;2023-02-10T10:40:27;22.60;;;11.18;;
77158;SDS011;66129;45.890;13.714;2023-02-10T10:42:56;18.20;;;10.15;;
77158;SDS011;66129;45.890;13.714;2023-02-10T10:53:44;51.60;;;20.75;;
77158;SDS011;66129;45.890;13.714;2023-02-10T11:02:25;19.77;;;10.52;;
77158;SDS011;66129;45.890;13.714;2023-02-10T11:05:12;14.20;;;8.25;;
77158;SDS011;66129;45.890;13.714;2023-02-10T11:07:39;13.48;;;8.10;;
77158;SDS011;66129;45.890;13.714;2023-02-10T11:10:15;16.02;;;8.73;;
77158;SDS011;66129;45.890;13.714;2023-02-10T11:12:47;30.90;;;16.60;;
77158;SDS011;66129;45.890;13.714;2023-02-10T11:18:02;13.68;;;8.70;;
77158;SDS011;66129;45.890;13.714;2023-02-10T11:20:33;14.60;;;8.32;;
77158;SDS011;66129;45.890;13.714;2023-02-10T11:23:01;28.17;;;15.57;;
77158;SDS011;66129;45.890;13.714;2023-02-10T11:26:01;14.57;;;8.93;;
77158;SDS011;66129;45.890;13.714;2023-02-10T11:28:32;16.08;;;9.00;;
77158;SDS011;66129;45.890;13.714;2023-02-10T11:31:21;15.70;;;8.35;;
77158;SDS011;66129;45.890;13.714;2023-02-10T11:36:36;15.32;;;7.80;;
77158;SDS011;66129;45.890;13.714;2023-02-10T11:39:06;14.23;;;7.60;;
77158;SDS011;66129;45.890;13.714;2023-02-10T11:44:20;15.07;;;7.75;;
77158;SDS011;66129;45.890;13.714;2023-02-10T11:49:22;14.98;;;8.43;;
77158;SDS011;66129;45.890;13.714;2023-02-10T11:51:52;83.30;;;38.00;;
77158;SDS011;66129;45.890;13.714;2023-02-10T11:54:19;21.73;;;11.80;;
77158;SDS011;66129;45.890;13.714;2023-02-10T11:59:59;12.45;;;6.50;;
77158;SDS011;66129;45.890;13.714;2023-02-10T12:02:42;24.05;;;12.38;;
77158;SDS011;66129;45.890;13.714;2023-02-10T12:08:46;10.85;;;7.00;;
77158;SDS011;66129;45.890;13.714;2023-02-10T12:11:25;11.15;;;7.35;;
77158;SDS011;66129;45.890;13.714;2023-02-10T12:14:25;14.88;;;7.63;;
77158;SDS011;66129;45.890;13.714;2023-02-10T12:20:07;13.30;;;7.82;;
77158;SDS011;66129;45.890;13.714;2023-02-10T12:31:17;9.23;;;5.53;;
77158;SDS011;66129;45.890;13.714;2023-02-10T12:36:27;8.23;;;5.38;;
77158;SDS011;66129;45.890;13.714;2023-02-10T12:39:12;11.32;;;5.18;;
77158;SDS011;66129;45.890;13.714;2023-02-10T12:44:40;9.00;;;4.90;;
77158;SDS011;66129;45.890;13.714;2023-02-10T12:52:41;7.10;;;4.38;;
77158;SDS011;66129;45.890;13.714;2023-02-10T12:55:39;8.32;;;4.75;;
77158;SDS011;66129;45.890;13.714;2023-02-10T12:58:20;8.90;;;5.03;;
77158;SDS011;66129;45.890;13.714;2023-02-10T13:00:52;12.27;;;5.20;;
77158;SDS011;66129;45.890;13.714;2023-02-10T13:03:34;10.75;;;4.63;;
77158;SDS011;66129;45.890;13.714;2023-02-10T13:11:34;11.65;;;6.07;;
77158;SDS011;66129;45.890;13.714;2023-02-10T13:14:09;12.05;;;6.45;;
77158;SDS011;66129;45.890;13.714;2023-02-10T13:16:54;10.90;;;5.85;;
77158;SDS011;66129;45.890;13.714;2023-02-10T13:19:49;10.70;;;5.75;;
77158;SDS011;66129;45.890;13.714;2023-02-10T13:25:11;11.50;;;6.00;;
77158;SDS011;66129;45.890;13.714;2023-02-10T13:27:49;9.70;;;5.47;;
77158;SDS011;66129;45.890;13.714;2023-02-10T13:32:52;13.13;;;6.03;;
77158;SDS011;66129;45.890;13.714;2023-02-10T13:35:29;15.30;;;5.68;;
77158;SDS011;66129;45.890;13.714;2023-02-10T13:37:57;11.57;;;6.38;;
77158;SDS011;66129;45.890;13.714;2023-02-10T13:40:50;17.23;;;8.05;;
77158;SDS011;66129;45.890;13.714;2023-02-10T13:45:59;13.73;;;6.82;;
77158;SDS011;66129;45.890;13.714;2023-02-10T13:48:29;11.77;;;6.40;;
77158;SDS011;66129;45.890;13.714;2023-02-10T13:51:04;16.85;;;7.05;;
77158;SDS011;66129;45.890;13.714;2023-02-10T14:06:45;11.73;;;5.47;;
77158;SDS011;66129;45.890;13.714;2023-02-10T14:09:31;12.80;;;6.07;;
77158;SDS011;66129;45.890;13.714;2023-02-10T14:12:03;11.63;;;5.72;;
77158;SDS011;66129;45.890;13.714;2023-02-10T14:14:47;12.25;;;5.88;;
77158;SDS011;66129;45.890;13.714;2023-02-10T14:17:31;9.68;;;5.70;;
77158;SDS011;66129;45.890;13.714;2023-02-10T14:19:57;8.73;;;5.18;;
77158;SDS011;66129;45.890;13.714;2023-02-10T14:22:26;9.02;;;5.13;;
77158;SDS011;66129;45.890;13.714;2023-02-10T14:25:03;10.30;;;6.57;;
77158;SDS011;66129;45.890;13.714;2023-02-10T14:27:37;10.23;;;5.45;;
77158;SDS011;66129;45.890;13.714;2023-02-10T14:39:13;10.60;;;5.55;;
77158;SDS011;66129;45.890;13.714;2023-02-10T14:41:39;10.98;;;5.75;;
77158;SDS011;66129;45.890;13.714;2023-02-10T14:44:33;11.82;;;5.80;;
77158;SDS011;66129;45.890;13.714;2023-02-10T14:47:04;9.50;;;5.43;;
77158;SDS011;66129;45.890;13.714;2023-02-10T14:49:32;11.07;;;5.88;;
77158;SDS011;66129;45.890;13.714;2023-02-10T14:52:03;17.00;;;8.50;;
77158;SDS011;66129;45.890;13.714;2023-02-10T14:54:29;11.07;;;6.63;;
77158;SDS011;66129;45.890;13.714;2023-02-10T14:56:59;12.35;;;6.53;;
77158;SDS011;66129;45.890;13.714;2023-02-10T14:59:30;14.38;;;7.28;;
77158;SDS011;66129;45.890;13.714;2023-02-10T15:02:03;15.57;;;7.47;;
77158;SDS011;66129;45.890;13.714;2023-02-10T15:04:30;52.83;;;18.48;;
77158;SDS011;66129;45.890;13.714;2023-02-10T15:06:56;14.85;;;7.80;;
77158;SDS011;66129;45.890;13.714;2023-02-10T15:09:28;27.17;;;11.52;;
77158;SDS011;66129;45.890;13.714;2023-02-10T15:12:06;31.70;;;14.23;;
77158;SDS011;66129;45.890;13.714;2023-02-10T15:17:36;28.02;;;13.57;;
77158;SDS011;66129;45.890;13.714;2023-02-10T15:23:02;11.05;;;5.53;;
77158;SDS011;66129;45.890;13.714;2023-02-10T15:25:34;10.85;;;6.25;;
77158;SDS011;66129;45.890;13.714;2023-02-10T15:28:25;18.05;;;7.85;;
77158;SDS011;66129;45.890;13.714;2023-02-10T15:33:25;11.07;;;6.75;;
77158;SDS011;66129;45.890;13.714;2023-02-10T15:36:05;12.55;;;7.05;;
77158;SDS011;66129;45.890;13.714;2023-02-10T15:42:31;11.55;;;6.45;;
77158;SDS011;66129;45.890;13.714;2023-02-10T15:44:39;14.02;;;8.65;;
77158;SDS011;66129;45.890;13.714;2023-02-10T15:49:40;16.95;;;7.78;;
77158;SDS011;66129;45.890;13.714;2023-02-10T15:52:19;14.82;;;7.88;;
77158;SDS011;66129;45.890;13.714;2023-02-10T15:54:47;12.77;;;7.07;;
77158;SDS011;66129;45.890;13.714;2023-02-10T15:57:17;8.95;;;5.47;;
77158;SDS011;66129;45.890;13.714;2023-02-10T15:59:43;13.95;;;8.00;;
77158;SDS011;66129;45.890;13.714;2023-02-10T16:02:10;10.75;;;6.63;;
77158;SDS011;66129;45.890;13.714;2023-02-10T16:04:38;14.40;;;6.50;;
77158;SDS011;66129;45.890;13.714;2023-02-10T16:07:05;12.70;;;6.07;;
77158;SDS011;66129;45.890;13.714;2023-02-10T16:09:31;12.77;;;5.90;;
77158;SDS011;66129;45.890;13.714;2023-02-10T16:11:58;11.63;;;6.25;;
77158;SDS011;66129;45.890;13.714;2023-02-10T16:14:25;12.95;;;6.38;;
77158;SDS011;66129;45.890;13.714;2023-02-10T16:16:51;13.73;;;5.80;;
77158;SDS011;66129;45.890;13.714;2023-02-10T16:19:19;14.35;;;6.15;;
77158;SDS011;66129;45.890;13.714;2023-02-10T16:21:47;12.75;;;7.13;;
77158;SDS011;66129;45.890;13.714;2023-02-10T16:24:13;10.43;;;5.40;;
77158;SDS011;66129;45.890;13.714;2023-02-10T16:26:40;11.57;;;7.18;;
77158;SDS011;66129;45.890;13.714;2023-02-10T16:29:09;13.02;;;7.32;;
77158;SDS011;66129;45.890;13.714;2023-02-10T16:31:39;15.70;;;7.60;;
77158;SDS011;66129;45.890;13.714;2023-02-10T16:34:05;16.50;;;8.13;;
77158;SDS011;66129;45.890;13.714;2023-02-10T16:36:31;16.27;;;8.73;;
77158;SDS011;66129;45.890;13.714;2023-02-10T16:38:56;18.33;;;9.00;;
77158;SDS011;66129;45.890;13.714;2023-02-10T16:41:22;15.63;;;8.27;;
77158;SDS011;66129;45.890;13.714;2023-02-10T16:43:48;18.30;;;10.40;;
77158;SDS011;66129;45.890;13.714;2023-02-10T16:46:15;16.92;;;10.18;;
77158;SDS011;66129;45.890;13.714;2023-02-10T16:48:49;23.30;;;14.35;;
77158;SDS011;66129;45.890;13.714;2023-02-10T16:51:27;13.55;;;6.90;;